SWA3119 KMCO-KFLL
Flight info
| Callsign | SWA3119 |
|---|---|
| Flight time | N/A |
| Altitude | 25000 |
| Route | DDANY3 JIPOD CUUDA3 |
| Aircraft | B738/M-SDGIJ1LRWY/SB1 |
Departure
| Time | 2026-05-05 00:32 |
|---|---|
| Airport | Orlando International Airport (KMCO) |
Arrival
| Time | N/A |
|---|---|
| Airport | Fort Lauderdale Hollywood International Airport (KFLL) |
| Time | Latitude | Longitude | Altitude | Speed | Heading |
|---|---|---|---|---|---|
| 2026-05-04 23:58 | 28.42898 | -81.30057 | 87 ft | 0 kts | 183° |
| 2026-05-05 00:18 | 28.42908 | -81.30057 | 87 ft | 2 kts | 183° |
| 2026-05-05 00:18 | 28.42922 | -81.30056 | 87 ft | 1 kts | 183° |
| 2026-05-05 00:18 | 28.42929 | -81.30056 | 87 ft | 2 kts | 178° |
| 2026-05-05 00:19 | 28.42940 | -81.30059 | 88 ft | 2 kts | 148° |
| 2026-05-05 00:19 | 28.42949 | -81.30068 | 88 ft | 2 kts | 126° |
| 2026-05-05 00:19 | 28.42955 | -81.30081 | 88 ft | 2 kts | 101° |
| 2026-05-05 00:19 | 28.42954 | -81.30097 | 87 ft | 2 kts | 73° |
| 2026-05-05 00:20 | 28.42951 | -81.30106 | 87 ft | 0 kts | 60° |
| 2026-05-05 00:20 | 28.42950 | -81.30109 | 87 ft | 0 kts | 62° |
| 2026-05-05 00:22 | 28.42951 | -81.30106 | 87 ft | 3 kts | 62° |
| 2026-05-05 00:22 | 28.42969 | -81.30068 | 88 ft | 1 kts | 64° |
| 2026-05-05 00:23 | 28.42977 | -81.30029 | 88 ft | 12 kts | 88° |
| 2026-05-05 00:23 | 28.42948 | -81.29941 | 89 ft | 11 kts | 122° |
| 2026-05-05 00:23 | 28.42919 | -81.29884 | 89 ft | 0 kts | 110° |
| 2026-05-05 00:25 | 28.42911 | -81.29840 | 90 ft | 12 kts | 101° |
| 2026-05-05 00:25 | 28.42857 | -81.29796 | 90 ft | 10 kts | 175° |
| 2026-05-05 00:25 | 28.42780 | -81.29796 | 89 ft | 16 kts | 181° |
| 2026-05-05 00:25 | 28.42659 | -81.29795 | 87 ft | 20 kts | 179° |
| 2026-05-05 00:26 | 28.42525 | -81.29794 | 87 ft | 19 kts | 180° |
| 2026-05-05 00:26 | 28.42396 | -81.29793 | 88 ft | 18 kts | 180° |
| 2026-05-05 00:26 | 28.42273 | -81.29791 | 89 ft | 16 kts | 179° |
| 2026-05-05 00:27 | 28.41827 | -81.29694 | 90 ft | 0 kts | 181° |
| 2026-05-05 00:27 | 28.41824 | -81.29694 | 90 ft | 5 kts | 181° |
| 2026-05-05 00:28 | 28.41697 | -81.29692 | 87 ft | 22 kts | 179° |
| 2026-05-05 00:28 | 28.41541 | -81.29688 | 87 ft | 22 kts | 177° |
| 2026-05-05 00:28 | 28.41390 | -81.29690 | 87 ft | 20 kts | 178° |
| 2026-05-05 00:28 | 28.41248 | -81.29687 | 85 ft | 20 kts | 179° |
| 2026-05-05 00:29 | 28.41101 | -81.29685 | 84 ft | 20 kts | 180° |
| 2026-05-05 00:29 | 28.40963 | -81.29684 | 83 ft | 19 kts | 179° |
| 2026-05-05 00:29 | 28.40854 | -81.29681 | 81 ft | 12 kts | 164° |
| 2026-05-05 00:29 | 28.40831 | -81.29663 | 81 ft | 0 kts | 128° |
| 2026-05-05 00:30 | 28.40822 | -81.29612 | 81 ft | 11 kts | 90° |
| 2026-05-05 00:31 | 28.40849 | -81.29562 | 81 ft | 6 kts | 24° |
| 2026-05-05 00:31 | 28.40892 | -81.29558 | 82 ft | 10 kts | 0° |
| 2026-05-05 00:31 | 28.41088 | -81.29562 | 84 ft | 65 kts | 3° |
| 2026-05-05 00:31 | 28.41691 | -81.29568 | 87 ft | 132 kts | 359° |
| 2026-05-05 00:32 | 28.44446 | -81.29597 | 1069 ft | 203 kts | 4° |
| 2026-05-05 00:32 | 28.45773 | -81.29491 | 2212 ft | 184 kts | 23° |
| 2026-05-05 00:32 | 28.46737 | -81.28668 | 2775 ft | 186 kts | 64° |
| 2026-05-05 00:33 | 28.47168 | -81.27228 | 3342 ft | 197 kts | 75° |
| 2026-05-05 00:33 | 28.47739 | -81.25751 | 3832 ft | 215 kts | 61° |
| 2026-05-05 00:33 | 28.48627 | -81.24301 | 4355 ft | 231 kts | 54° |
| 2026-05-05 00:33 | 28.49639 | -81.22811 | 4837 ft | 247 kts | 54° |
| 2026-05-05 00:34 | 28.50562 | -81.21075 | 4989 ft | 263 kts | 69° |
| 2026-05-05 00:34 | 28.51013 | -81.19060 | 4984 ft | 266 kts | 81° |
| 2026-05-05 00:34 | 28.51183 | -81.16940 | 4999 ft | 272 kts | 93° |
| 2026-05-05 00:34 | 28.50770 | -81.14814 | 5695 ft | 276 kts | 107° |
| 2026-05-05 00:35 | 28.50249 | -81.12765 | 6568 ft | 273 kts | 106° |
| 2026-05-05 00:35 | 28.49766 | -81.10655 | 7374 ft | 274 kts | 105° |
| 2026-05-05 00:35 | 28.49306 | -81.08572 | 8049 ft | 278 kts | 104° |
| 2026-05-05 00:35 | 28.48814 | -81.06451 | 8688 ft | 283 kts | 108° |
| 2026-05-05 00:36 | 28.47974 | -81.04418 | 9295 ft | 287 kts | 127° |
| 2026-05-05 00:36 | 28.46555 | -81.02839 | 9981 ft | 286 kts | 143° |
| 2026-05-05 00:36 | 28.45495 | -81.01921 | 10436 ft | 287 kts | 145° |
| 2026-05-05 00:37 | 28.42112 | -80.99046 | 11748 ft | 294 kts | 143° |
| 2026-05-05 00:37 | 28.40476 | -80.97592 | 12326 ft | 299 kts | 143° |
| 2026-05-05 00:37 | 28.38802 | -80.96079 | 12910 ft | 304 kts | 142° |
| 2026-05-05 00:37 | 28.37149 | -80.94573 | 13468 ft | 307 kts | 142° |
| 2026-05-05 00:38 | 28.35467 | -80.93037 | 13864 ft | 311 kts | 142° |
| 2026-05-05 00:38 | 28.33755 | -80.91477 | 13980 ft | 312 kts | 142° |
| 2026-05-05 00:38 | 28.32023 | -80.89905 | 14093 ft | 327 kts | 142° |
| 2026-05-05 00:38 | 28.30242 | -80.88270 | 14621 ft | 332 kts | 141° |
| 2026-05-05 00:39 | 28.28531 | -80.86362 | 14913 ft | 353 kts | 131° |
| 2026-05-05 00:39 | 28.27170 | -80.84006 | 15482 ft | 363 kts | 118° |
| 2026-05-05 00:39 | 28.26103 | -80.81393 | 16188 ft | 368 kts | 114° |
| 2026-05-05 00:39 | 28.25125 | -80.78683 | 16823 ft | 374 kts | 112° |
| 2026-05-05 00:40 | 28.24155 | -80.75884 | 17452 ft | 379 kts | 112° |
| 2026-05-05 00:40 | 28.23168 | -80.73029 | 18072 ft | 385 kts | 112° |
| 2026-05-05 00:40 | 28.22184 | -80.70219 | 18670 ft | 389 kts | 113° |
| 2026-05-05 00:40 | 28.21166 | -80.67352 | 19270 ft | 394 kts | 113° |
| 2026-05-05 00:41 | 28.20149 | -80.64427 | 19854 ft | 399 kts | 112° |
| 2026-05-05 00:41 | 28.19165 | -80.61482 | 20433 ft | 404 kts | 111° |
| 2026-05-05 00:41 | 28.18169 | -80.58440 | 20988 ft | 408 kts | 111° |
| 2026-05-05 00:41 | 28.17187 | -80.55433 | 21514 ft | 413 kts | 111° |
| 2026-05-05 00:42 | 28.16177 | -80.52342 | 22079 ft | 417 kts | 111° |
| 2026-05-05 00:42 | 28.15165 | -80.49260 | 22594 ft | 421 kts | 111° |
| 2026-05-05 00:42 | 28.14132 | -80.46124 | 23099 ft | 425 kts | 112° |
| 2026-05-05 00:42 | 28.13082 | -80.42953 | 23563 ft | 430 kts | 112° |
| 2026-05-05 00:43 | 28.11941 | -80.39812 | 24075 ft | 432 kts | 116° |
| 2026-05-05 00:43 | 28.10501 | -80.36822 | 24534 ft | 433 kts | 126° |
| 2026-05-05 00:43 | 28.08663 | -80.34163 | 24964 ft | 433 kts | 137° |
| 2026-05-05 00:43 | 28.06409 | -80.31869 | 25031 ft | 438 kts | 149° |
| 2026-05-05 00:44 | 28.03805 | -80.30090 | 25036 ft | 444 kts | 159° |
| 2026-05-05 00:44 | 28.00939 | -80.28690 | 25034 ft | 452 kts | 164° |
| 2026-05-05 00:44 | 27.97958 | -80.27435 | 25027 ft | 463 kts | 166° |
| 2026-05-05 00:44 | 27.94909 | -80.26233 | 25032 ft | 471 kts | 166° |
| 2026-05-05 00:45 | 27.91819 | -80.25044 | 25032 ft | 468 kts | 166° |
| 2026-05-05 00:45 | 27.88818 | -80.23899 | 25033 ft | 470 kts | 167° |
| 2026-05-05 00:45 | 27.85772 | -80.22738 | 25037 ft | 468 kts | 167° |
| 2026-05-05 00:45 | 27.82817 | -80.21602 | 25026 ft | 451 kts | 167° |
| 2026-05-05 00:46 | 27.79046 | -80.20136 | 25036 ft | 429 kts | 167° |
| 2026-05-05 00:46 | 27.77196 | -80.19415 | 25034 ft | 422 kts | 167° |
| 2026-05-05 00:46 | 27.74470 | -80.18361 | 25036 ft | 425 kts | 167° |
| 2026-05-05 00:46 | 27.71784 | -80.17329 | 25034 ft | 430 kts | 167° |
| 2026-05-05 00:47 | 27.69150 | -80.16316 | 25031 ft | 430 kts | 167° |
| 2026-05-05 00:47 | 27.66481 | -80.15286 | 25034 ft | 429 kts | 167° |
| 2026-05-05 00:47 | 27.63849 | -80.14270 | 25033 ft | 430 kts | 167° |
| 2026-05-05 00:47 | 27.61186 | -80.13237 | 25033 ft | 430 kts | 167° |
| 2026-05-05 00:48 | 27.58350 | -80.12103 | 25034 ft | 430 kts | 166° |
| 2026-05-05 00:48 | 27.55597 | -80.10974 | 25026 ft | 430 kts | 166° |
| 2026-05-05 00:48 | 27.52809 | -80.09818 | 25028 ft | 431 kts | 166° |
| 2026-05-05 00:48 | 27.50016 | -80.08656 | 25029 ft | 431 kts | 166° |
| 2026-05-05 00:49 | 27.47197 | -80.07485 | 25030 ft | 431 kts | 166° |
| 2026-05-05 00:49 | 27.44426 | -80.06335 | 25032 ft | 429 kts | 166° |
| 2026-05-05 00:49 | 27.41665 | -80.05192 | 25029 ft | 429 kts | 166° |
| 2026-05-05 00:49 | 27.38980 | -80.04082 | 25029 ft | 427 kts | 166° |
| 2026-05-05 00:50 | 27.36323 | -80.03046 | 25031 ft | 426 kts | 169° |
| 2026-05-05 00:50 | 27.33661 | -80.02152 | 25028 ft | 422 kts | 171° |